Time,TemperatureF,DewpointF,PressureIn,WindDirection,WindDirectionDegrees,WindSpeedMPH,WindSpeedGustMPH,Humidity,HourlyPrecipIn,Conditions,Clouds,dailyrainin,SolarRadiationWatts/m^2,SoftwareType,DateUTC
2013-01-06 00:02:00,15.1,11.9,30.23,NNE,13,0.0,0.0,87,0.00,,,0.00,0,Wunderground v.1.15,2013-01-06 07:02:00,
2013-01-06 00:08:00,15.0,11.3,30.23,NNE,13,0.0,0.0,85,0.00,,,0.00,0,Wunderground v.1.15,2013-01-06 07:08:00,
2013-01-06 00:14:00,15.6,12.4,30.23,NNE,13,0.0,0.0,87,0.00,,,0.00,0,Wunderground v.1.15,2013-01-06 07:14:00,
2013-01-06 00:20:00,15.6,12.2,30.23,NNE,13,0.0,0.0,86,0.00,,,0.00,0,Wunderground v.1.15,2013-01-06 07:20:00,
2013-01-06 00:26:00,15.2,11.5,30.22,NNE,13,0.0,2.0,85,0.00,,,0.00,0,Wunderground v.1.15,2013-01-06 07:26:00,
2013-01-06 00:32:00,15.0,11.6,30.22,NNE,13,0.0,0.0,86,0.00,,,0.00,0,Wunderground v.1.15,2013-01-06 07:32:00,
2013-01-06 00:38:00,15.6,12.4,30.22,NNE,13,0.0,0.0,87,0.00,,,0.00,0,Wunderground v.1.15,2013-01-06 07:38:00,
2013-01-06 00:46:00,16.1,12.7,30.22,NNE,13,0.0,0.0,86,0.00,,,0.00,0,Wunderground v.1.15,2013-01-06 07:46:00,
2013-01-06 00:52:00,15.7,12.0,30.22,NNE,13,0.0,0.0,85,0.00,,,0.00,0,Wunderground v.1.15,2013-01-06 07:52:00,
2013-01-06 00:58:00,17.5,14.3,30.21,NNE,13,1.0,4.0,87,0.00,,,0.00,0,Wunderground v.1.15,2013-01-06 07:58:00,
2013-01-06 01:04:00,19.7,15.9,30.20,South,188,4.0,9.0,85,0.00,,,0.00,0,Wunderground v.1.15,2013-01-06 08:04:00,
2013-01-06 01:10:00,21.2,16.3,30.20,SSW,208,6.0,6.0,81,0.00,,,0.00,0,Wunderground v.1.15,2013-01-06 08:10:00,
2013-01-06 01:16:00,22.2,16.1,30.20,SSW,203,6.0,6.0,77,0.00,,,0.00,0,Wunderground v.1.15,2013-01-06 08:16:00,
2013-01-06 01:22:00,22.6,15.6,30.20,SSW,205,5.0,5.0,74,0.00,,,0.00,0,Wunderground v.1.15,2013-01-06 08:22:00,
2013-01-06 01:28:00,22.7,15.3,30.20,SSW,207,5.0,5.0,73,0.00,,,0.00,0,Wunderground v.1.15,2013-01-06 08:28:00,
2013-01-06 01:34:00,22.5,15.1,30.20,SSW,207,4.0,5.0,73,0.00,,,0.00,0,Wunderground v.1.15,2013-01-06 08:34:00,
2013-01-06 01:40:00,22.5,15.5,30.20,SW,229,3.0,4.0,74,0.00,,,0.00,0,Wunderground v.1.15,2013-01-06 08:40:00,
2013-01-06 01:46:00,22.5,15.5,30.20,SW,216,4.0,5.0,74,0.00,,,0.00,0,Wunderground v.1.15,2013-01-06 08:46:00,
2013-01-06 01:52:00,22.7,15.7,30.20,WSW,257,3.0,4.0,74,0.00,,,0.00,0,Wunderground v.1.15,2013-01-06 08:52:00,
2013-01-06 01:58:00,22.9,15.5,30.20,SSW,204,4.0,4.0,73,0.00,,,0.00,0,Wunderground v.1.15,2013-01-06 08:58:00,
2013-01-06 02:04:00,23.5,15.8,30.20,South,188,5.0,5.0,72,0.00,,,0.00,0,Wunderground v.1.15,2013-01-06 09:04:00,
2013-01-06 02:10:00,23.8,15.8,30.20,SSW,203,6.0,6.0,71,0.00,,,0.00,0,Wunderground v.1.15,2013-01-06 09:10:00,
2013-01-06 02:16:00,24.0,15.6,30.19,SW,216,4.0,6.0,70,0.00,,,0.00,0,Wunderground v.1.15,2013-01-06 09:16:00,
2013-01-06 02:22:00,24.1,15.7,30.20,SSW,200,3.0,6.0,70,0.00,,,0.00,0,Wunderground v.1.15,2013-01-06 09:22:00,
2013-01-06 02:28:00,24.7,16.0,30.20,SSW,196,4.0,7.0,69,0.00,,,0.00,0,Wunderground v.1.15,2013-01-06 09:28:00,
2013-01-06 02:34:00,25.2,16.1,30.20,SW,224,5.0,5.0,68,0.00,,,0.00,0,Wunderground v.1.15,2013-01-06 09:34:00,
2013-01-06 02:40:00,25.4,16.0,30.20,WSW,248,4.0,4.0,67,0.00,,,0.00,0,Wunderground v.1.15,2013-01-06 09:40:00,
2013-01-06 02:46:00,25.8,16.0,30.20,SSW,209,4.0,6.0,66,0.00,,,0.00,0,Wunderground v.1.15,2013-01-06 09:46:00,
2013-01-06 02:52:00,26.2,15.7,30.18,SSE,158,5.0,10.0,64,0.00,,,0.00,0,Wunderground v.1.15,2013-01-06 09:52:00,
2013-01-06 02:58:00,27.5,16.2,30.18,South,176,7.0,10.0,62,0.00,,,0.00,0,Wunderground v.1.15,2013-01-06 09:58:00,
2013-01-06 03:04:00,29.0,16.1,30.17,South,172,6.0,13.0,58,0.00,,,0.00,0,Wunderground v.1.15,2013-01-06 10:04:00,
2013-01-06 03:10:00,31.0,15.8,30.17,SSW,205,9.0,12.0,53,0.00,,,0.00,0,Wunderground v.1.15,2013-01-06 10:10:00,
2013-01-06 03:16:00,32.2,17.0,30.17,WSW,252,9.0,12.0,53,0.00,,,0.00,0,Wunderground v.1.15,2013-01-06 10:16:00,
2013-01-06 03:22:00,31.2,16.0,30.17,SSW,201,9.0,13.0,53,0.00,,,0.00,0,Wunderground v.1.15,2013-01-06 10:22:00,
2013-01-06 03:28:00,31.0,16.3,30.16,South,174,8.0,13.0,54,0.00,,,0.00,0,Wunderground v.1.15,2013-01-06 10:28:00,
2013-01-06 03:34:00,30.9,15.8,30.16,SE,140,8.0,11.0,53,0.00,,,0.00,0,Wunderground v.1.15,2013-01-06 10:34:00,
2013-01-06 03:40:00,31.1,15.9,30.16,South,179,7.0,7.0,53,0.00,,,0.00,0,Wunderground v.1.15,2013-01-06 10:40:00,
2013-01-06 03:46:00,31.1,15.9,30.16,South,180,6.0,7.0,53,0.00,,,0.00,0,Wunderground v.1.15,2013-01-06 10:46:00,
2013-01-06 03:52:00,31.0,15.8,30.15,South,183,6.0,6.0,53,0.00,,,0.00,0,Wunderground v.1.15,2013-01-06 10:52:00,
2013-01-06 03:58:00,30.4,16.1,30.14,South,177,6.0,6.0,55,0.00,,,0.00,0,Wunderground v.1.15,2013-01-06 10:58:00,
2013-01-06 04:04:00,29.9,15.7,30.14,SW,214,7.0,7.0,55,0.00,,,0.00,0,Wunderground v.1.15,2013-01-06 11:04:00,
2013-01-06 04:10:00,29.7,15.9,30.14,South,169,8.0,9.0,56,0.00,,,0.00,0,Wunderground v.1.15,2013-01-06 11:10:00,
2013-01-06 04:16:00,30.6,16.3,30.13,South,182,10.0,10.0,55,0.00,,,0.00,0,Wunderground v.1.15,2013-01-06 11:16:00,
2013-01-06 04:22:00,31.7,16.1,30.13,SSE,151,10.0,11.0,52,0.00,,,0.00,0,Wunderground v.1.15,2013-01-06 11:22:00,
2013-01-06 04:28:00,32.3,16.6,30.13,South,178,10.0,12.0,52,0.00,,,0.00,0,Wunderground v.1.15,2013-01-06 11:28:00,
2013-01-06 04:34:00,32.1,16.4,30.13,South,188,8.0,10.0,52,0.00,,,0.00,0,Wunderground v.1.15,2013-01-06 11:34:00,
2013-01-06 04:40:00,31.6,16.0,30.13,South,180,8.0,10.0,52,0.00,,,0.00,0,Wunderground v.1.15,2013-01-06 11:40:00,
2013-01-06 04:46:00,31.7,15.6,30.13,SSE,161,10.0,15.0,51,0.00,,,0.00,0,Wunderground v.1.15,2013-01-06 11:46:00,
2013-01-06 04:52:00,31.7,16.1,30.13,SSE,163,11.0,12.0,52,0.00,,,0.00,0,Wunderground v.1.15,2013-01-06 11:52:00,
2013-01-06 04:58:00,31.6,16.0,30.12,SSE,157,12.0,13.0,52,0.00,,,0.00,0,Wunderground v.1.15,2013-01-06 11:58:00,
2013-01-06 05:04:00,31.6,16.0,30.13,South,178,13.0,15.0,52,0.00,,,0.00,0,Wunderground v.1.15,2013-01-06 12:04:00,
2013-01-06 05:10:00,31.7,16.1,30.12,South,182,13.0,13.0,52,0.00,,,0.00,0,Wunderground v.1.15,2013-01-06 12:10:00,
2013-01-06 05:16:00,31.8,15.7,30.12,South,190,12.0,13.0,51,0.00,,,0.00,0,Wunderground v.1.15,2013-01-06 12:16:00,
2013-01-06 05:22:00,32.1,16.0,30.12,SSE,167,12.0,12.0,51,0.00,,,0.00,0,Wunderground v.1.15,2013-01-06 12:22:00,
2013-01-06 05:28:00,32.4,15.8,30.11,SSW,192,12.0,12.0,50,0.00,,,0.00,0,Wunderground v.1.15,2013-01-06 12:28:00,
2013-01-06 05:38:00,32.8,16.2,30.11,South,178,9.0,13.0,50,0.00,,,0.00,0,Wunderground v.1.15,2013-01-06 12:38:00,
2013-01-06 05:44:00,32.6,16.0,30.11,South,191,7.0,11.0,50,0.00,,,0.00,0,Wunderground v.1.15,2013-01-06 12:44:00,
2013-01-06 05:50:00,32.0,15.9,30.11,SSW,202,6.0,6.0,51,0.00,,,0.00,0,Wunderground v.1.15,2013-01-06 12:50:00,
2013-01-06 05:56:00,31.5,16.3,30.11,SSW,207,6.0,9.0,53,0.00,,,0.00,0,Wunderground v.1.15,2013-01-06 12:56:00,
2013-01-06 06:04:00,29.9,15.7,30.11,SSW,211,6.0,8.0,55,0.00,,,0.00,0,Wunderground v.1.15,2013-01-06 13:04:00,
2013-01-06 06:10:00,29.1,15.7,30.11,South,177,6.0,6.0,57,0.00,,,0.00,0,Wunderground v.1.15,2013-01-06 13:10:00,
2013-01-06 06:24:00,30.1,15.9,30.11,SW,236,5.0,6.0,55,0.00,,,0.00,0,Wunderground v.1.15,2013-01-06 13:24:00,
2013-01-06 06:30:00,29.1,15.3,30.12,WSW,242,4.0,4.0,56,0.00,,,0.00,0,Wunderground v.1.15,2013-01-06 13:30:00,
2013-01-06 06:36:00,27.1,14.3,30.11,WSW,242,2.0,4.0,58,0.00,,,0.00,0,Wunderground v.1.15,2013-01-06 13:36:00,
2013-01-06 06:42:00,25.2,13.6,30.12,WSW,240,2.0,3.0,61,0.00,,,0.00,0,Wunderground v.1.15,2013-01-06 13:42:00,
2013-01-06 06:48:00,23.8,13.7,30.11,WSW,248,2.0,3.0,65,0.00,,,0.00,0,Wunderground v.1.15,2013-01-06 13:48:00,
2013-01-06 06:54:00,22.1,13.1,30.12,ENE,58,2.0,3.0,68,0.00,,,0.00,0,Wunderground v.1.15,2013-01-06 13:54:00,
2013-01-06 07:00:00,20.7,13.1,30.12,ENE,57,2.0,2.0,72,0.00,,,0.00,0,Wunderground v.1.15,2013-01-06 14:00:00,
2013-01-06 07:06:00,19.4,12.2,30.11,ENE,57,1.0,2.0,73,0.00,,,0.00,0,Wunderground v.1.15,2013-01-06 14:06:00,
2013-01-06 07:12:00,18.2,11.9,30.12,ENE,57,0.0,1.0,76,0.00,,,0.00,0,Wunderground v.1.15,2013-01-06 14:12:00,
2013-01-06 07:18:00,17.9,12.5,30.12,ENE,57,1.0,2.0,79,0.00,,,0.00,0,Wunderground v.1.15,2013-01-06 14:18:00,
2013-01-06 07:24:00,17.5,11.8,30.12,ENE,57,1.0,1.0,78,0.00,,,0.00,0,Wunderground v.1.15,2013-01-06 14:24:00,
2013-01-06 07:30:00,17.5,12.7,30.12,ENE,57,0.0,0.0,81,0.00,,,0.00,0,Wunderground v.1.15,2013-01-06 14:30:00,
2013-01-06 07:36:00,17.0,11.9,30.12,ENE,57,1.0,4.0,80,0.00,,,0.00,0,Wunderground v.1.15,2013-01-06 14:36:00,
2013-01-06 07:42:00,17.1,12.6,30.12,ENE,57,2.0,2.0,82,0.00,,,0.00,0,Wunderground v.1.15,2013-01-06 14:42:00,
2013-01-06 07:48:00,16.8,12.0,30.13,ENE,57,1.0,4.0,81,0.00,,,0.00,0,Wunderground v.1.15,2013-01-06 14:48:00,
2013-01-06 07:54:00,16.6,12.1,30.13,ENE,57,2.0,3.0,82,0.00,,,0.00,0,Wunderground v.1.15,2013-01-06 14:54:00,
2013-01-06 08:00:00,16.1,11.3,30.13,ENE,57,2.0,3.0,81,0.00,,,0.00,0,Wunderground v.1.15,2013-01-06 15:00:00,
2013-01-06 08:06:00,15.8,11.6,30.13,ENE,57,1.0,3.0,83,0.00,,,0.00,0,Wunderground v.1.15,2013-01-06 15:06:00,
2013-01-06 08:12:00,15.3,10.8,30.12,ENE,57,1.0,3.0,82,0.00,,,0.00,0,Wunderground v.1.15,2013-01-06 15:12:00,
2013-01-06 08:18:00,15.4,11.7,30.13,ENE,57,1.0,3.0,85,0.00,,,0.00,5,Wunderground v.1.15,2013-01-06 15:18:00,
2013-01-06 08:24:00,16.0,12.3,30.13,ENE,57,0.0,1.0,85,0.00,,,0.00,12,Wunderground v.1.15,2013-01-06 15:24:00,
2013-01-06 08:30:00,16.3,12.6,30.13,ENE,57,0.0,0.0,85,0.00,,,0.00,18,Wunderground v.1.15,2013-01-06 15:30:00,
2013-01-06 08:36:00,16.9,13.4,30.13,ENE,57,1.0,3.0,86,0.00,,,0.00,18,Wunderground v.1.15,2013-01-06 15:36:00,
2013-01-06 08:42:00,17.4,13.7,30.13,ENE,57,1.0,1.0,85,0.00,,,0.00,18,Wunderground v.1.15,2013-01-06 15:42:00,
2013-01-06 08:48:00,17.7,14.0,30.13,ENE,57,0.0,1.0,85,0.00,,,0.00,16,Wunderground v.1.15,2013-01-06 15:48:00,
2013-01-06 08:54:00,18.0,14.0,30.13,ENE,57,0.0,0.0,84,0.00,,,0.00,16,Wunderground v.1.15,2013-01-06 15:54:00,
2013-01-06 09:00:00,18.3,14.3,30.13,ENE,57,0.0,0.0,84,0.00,,,0.00,16,Wunderground v.1.15,2013-01-06 16:00:00,
2013-01-06 09:06:00,18.6,14.6,30.14,ENE,57,0.0,0.0,84,0.00,,,0.00,18,Wunderground v.1.15,2013-01-06 16:06:00,
2013-01-06 09:12:00,19.0,15.0,30.14,ENE,57,0.0,0.0,84,0.00,,,0.00,30,Wunderground v.1.15,2013-01-06 16:12:00,
2013-01-06 09:18:00,19.5,15.2,30.15,ENE,57,0.0,0.0,83,0.00,,,0.00,39,Wunderground v.1.15,2013-01-06 16:18:00,
2013-01-06 09:24:00,20.0,15.7,30.14,ENE,57,0.0,0.0,83,0.00,,,0.00,44,Wunderground v.1.15,2013-01-06 16:24:00,
2013-01-06 09:30:00,20.4,15.8,30.14,ENE,57,0.0,0.0,82,0.00,,,0.00,56,Wunderground v.1.15,2013-01-06 16:30:00,
2013-01-06 09:36:00,20.8,16.2,30.14,ENE,57,0.0,0.0,82,0.00,,,0.00,67,Wunderground v.1.15,2013-01-06 16:36:00,
2013-01-06 09:42:00,21.1,16.2,30.13,ENE,57,0.0,0.0,81,0.00,,,0.00,81,Wunderground v.1.15,2013-01-06 16:42:00,
2013-01-06 09:48:00,21.8,16.9,30.13,ENE,57,0.0,0.0,81,0.00,,,0.00,67,Wunderground v.1.15,2013-01-06 16:48:00,
2013-01-06 09:54:00,23.1,17.8,30.13,SSW,207,1.0,4.0,80,0.00,,,0.00,62,Wunderground v.1.15,2013-01-06 16:54:00,
2013-01-06 10:00:00,26.7,18.9,30.13,South,188,5.0,8.0,72,0.00,,,0.00,56,Wunderground v.1.15,2013-01-06 17:00:00,
2013-01-06 10:06:00,29.2,19.2,30.13,SW,216,8.0,8.0,66,0.00,,,0.00,54,Wunderground v.1.15,2013-01-06 17:06:00,
2013-01-06 10:12:00,30.2,18.7,30.13,South,188,8.0,8.0,62,0.00,,,0.00,70,Wunderground v.1.15,2013-01-06 17:12:00,
2013-01-06 10:18:00,30.8,18.9,30.13,SSW,192,7.0,8.0,61,0.00,,,0.00,97,Wunderground v.1.15,2013-01-06 17:18:00,
2013-01-06 10:24:00,31.6,19.3,30.13,SSW,196,7.0,8.0,60,0.00,,,0.00,134,Wunderground v.1.15,2013-01-06 17:24:00,
2013-01-06 10:30:00,32.5,19.3,30.13,SW,215,7.0,7.0,58,0.00,,,0.00,153,Wunderground v.1.15,2013-01-06 17:30:00,
2013-01-06 10:36:00,33.0,19.4,30.12,SSW,202,7.0,12.0,57,0.00,,,0.00,146,Wunderground v.1.15,2013-01-06 17:36:00,
2013-01-06 10:42:00,33.3,19.3,30.13,SSW,198,8.0,10.0,56,0.00,,,0.00,105,Wunderground v.1.15,2013-01-06 17:42:00,
2013-01-06 10:48:00,33.4,19.4,30.12,SW,219,8.0,10.0,56,0.00,,,0.00,132,Wunderground v.1.15,2013-01-06 17:48:00,
2013-01-06 10:54:00,33.6,19.6,30.12,SW,234,7.0,10.0,56,0.00,,,0.00,127,Wunderground v.1.15,2013-01-06 17:54:00,
2013-01-06 11:00:00,33.8,19.3,30.12,SSW,200,8.0,8.0,55,0.00,,,0.00,132,Wunderground v.1.15,2013-01-06 18:00:00,
2013-01-06 11:06:00,34.1,19.6,30.11,SSW,192,7.0,8.0,55,0.00,,,0.00,134,Wunderground v.1.15,2013-01-06 18:06:00,
2013-01-06 11:12:00,34.4,19.9,30.11,WSW,250,6.0,10.0,55,0.00,,,0.00,156,Wunderground v.1.15,2013-01-06 18:12:00,
2013-01-06 11:18:00,34.9,20.4,30.11,South,190,6.0,10.0,55,0.00,,,0.00,165,Wunderground v.1.15,2013-01-06 18:18:00,
2013-01-06 11:24:00,35.1,20.1,30.10,SSW,210,7.0,9.0,54,0.00,,,0.00,200,Wunderground v.1.15,2013-01-06 18:24:00,
2013-01-06 11:30:00,35.4,20.8,30.10,South,174,6.0,6.0,55,0.00,,,0.00,199,Wunderground v.1.15,2013-01-06 18:30:00,
2013-01-06 11:36:00,35.5,20.0,30.10,SSW,197,5.0,6.0,53,0.00,,,0.00,162,Wunderground v.1.15,2013-01-06 18:36:00,
2013-01-06 11:44:00,35.4,19.9,30.09,SE,140,6.0,6.0,53,0.00,,,0.00,137,Wunderground v.1.15,2013-01-06 18:44:00,
2013-01-06 11:50:00,35.5,20.0,30.08,South,183,8.0,8.0,53,0.00,,,0.00,209,Wunderground v.1.15,2013-01-06 18:50:00,
2013-01-06 11:56:00,35.9,20.0,30.08,SSW,198,8.0,9.0,52,0.00,,,0.00,190,Wunderground v.1.15,2013-01-06 18:56:00,
2013-01-06 12:02:00,35.9,20.4,30.07,South,179,7.0,7.0,53,0.00,,,0.00,193,Wunderground v.1.15,2013-01-06 19:02:00,
2013-01-06 12:08:00,36.1,20.2,30.07,SW,224,5.0,7.0,52,0.00,,,0.00,178,Wunderground v.1.15,2013-01-06 19:08:00,
2013-01-06 12:14:00,36.2,20.7,30.07,SSW,213,6.0,9.0,53,0.00,,,0.00,178,Wunderground v.1.15,2013-01-06 19:14:00,
2013-01-06 12:20:00,36.1,20.6,30.07,SSW,210,7.0,7.0,53,0.00,,,0.00,188,Wunderground v.1.15,2013-01-06 19:20:00,
2013-01-06 12:26:00,36.1,20.6,30.07,WSW,246,7.0,10.0,53,0.00,,,0.00,202,Wunderground v.1.15,2013-01-06 19:26:00,
2013-01-06 12:32:00,36.2,20.7,30.06,SSW,207,8.0,13.0,53,0.00,,,0.00,225,Wunderground v.1.15,2013-01-06 19:32:00,
2013-01-06 12:38:00,36.4,20.4,30.06,SSW,202,9.0,13.0,52,0.00,,,0.00,216,Wunderground v.1.15,2013-01-06 19:38:00,
2013-01-06 12:44:00,36.4,20.4,30.05,South,187,10.0,10.0,52,0.00,,,0.00,232,Wunderground v.1.15,2013-01-06 19:44:00,
2013-01-06 12:50:00,36.6,21.1,30.05,South,177,9.0,9.0,53,0.00,,,0.00,204,Wunderground v.1.15,2013-01-06 19:50:00,
2013-01-06 13:00:00,37.0,20.5,30.05,SW,228,8.0,8.0,51,0.00,,,0.00,195,Wunderground v.1.15,2013-01-06 20:00:00,
2013-01-06 13:06:00,37.0,20.5,30.04,SSW,207,9.0,9.0,51,0.00,,,0.00,207,Wunderground v.1.15,2013-01-06 20:06:00,
2013-01-06 13:12:00,37.1,20.6,30.05,SSW,213,9.0,16.0,51,0.00,,,0.00,204,Wunderground v.1.15,2013-01-06 20:12:00,
2013-01-06 13:18:00,37.2,20.7,30.04,SW,228,11.0,16.0,51,0.00,,,0.00,206,Wunderground v.1.15,2013-01-06 20:18:00,
2013-01-06 13:20:00,37.2,20.7,30.04,WSW,245,12.0,12.0,51,0.00,,,0.00,200,Wunderground v.1.15,2013-01-06 20:20:00,
2013-01-06 13:26:00,37.2,20.7,30.04,SW,234,12.0,15.0,51,0.00,,,0.00,192,Wunderground v.1.15,2013-01-06 20:26:00,
2013-01-06 13:32:00,37.2,20.7,30.04,SW,229,11.0,13.0,51,0.00,,,0.00,202,Wunderground v.1.15,2013-01-06 20:32:00,
2013-01-06 13:38:00,37.5,21.0,30.04,WSW,238,9.0,13.0,51,0.00,,,0.00,193,Wunderground v.1.15,2013-01-06 20:38:00,
2013-01-06 13:44:00,37.7,20.7,30.04,SW,224,8.0,12.0,50,0.00,,,0.00,199,Wunderground v.1.15,2013-01-06 20:44:00,
2013-01-06 13:50:00,36.5,21.8,30.04,NNE,30,9.0,9.0,55,0.00,,,0.00,200,Wunderground v.1.15,2013-01-06 20:50:00,
2013-01-06 13:56:00,35.5,22.2,30.04,NNE,24,5.0,9.0,58,0.00,,,0.00,237,Wunderground v.1.15,2013-01-06 20:56:00,
2013-01-06 14:02:00,36.7,22.0,30.04,WNW,283,2.0,3.0,55,0.00,,,0.00,229,Wunderground v.1.15,2013-01-06 21:02:00,
2013-01-06 14:10:00,38.0,22.8,30.04,WNW,290,1.0,3.0,54,0.00,,,0.00,501,Wunderground v.1.15,2013-01-06 21:10:00,
2013-01-06 14:16:00,38.8,22.7,30.04,West,261,4.0,5.0,52,0.00,,,0.00,213,Wunderground v.1.15,2013-01-06 21:16:00,
2013-01-06 14:22:00,38.2,22.6,30.04,West,273,7.0,10.0,53,0.00,,,0.00,158,Wunderground v.1.15,2013-01-06 21:22:00,
2013-01-06 14:28:00,35.9,21.7,30.04,West,273,3.0,10.0,56,0.00,,,0.00,144,Wunderground v.1.15,2013-01-06 21:28:00,
2013-01-06 14:34:00,35.5,22.6,30.05,West,273,1.0,2.0,59,0.00,,,0.00,135,Wunderground v.1.15,2013-01-06 21:34:00,
2013-01-06 14:40:00,34.7,21.4,30.05,ENE,63,3.0,3.0,58,0.00,,,0.00,132,Wunderground v.1.15,2013-01-06 21:40:00,
2013-01-06 14:48:00,34.3,21.8,30.05,North,360,3.0,6.0,60,0.00,,,0.00,98,Wunderground v.1.15,2013-01-06 21:48:00,
2013-01-06 14:54:00,33.4,21.4,30.06,North,5,4.0,4.0,61,0.00,,,0.00,116,Wunderground v.1.15,2013-01-06 21:54:00,
2013-01-06 15:00:00,32.8,21.2,30.06,North,5,4.0,4.0,62,0.00,,,0.00,98,Wunderground v.1.15,2013-01-06 22:00:00,
2013-01-06 15:08:00,32.1,20.9,30.06,North,5,3.0,4.0,63,0.00,,,0.00,77,Wunderground v.1.15,2013-01-06 22:08:00,
2013-01-06 15:16:00,31.7,21.6,30.06,North,5,2.0,3.0,66,0.00,,,0.00,79,Wunderground v.1.15,2013-01-06 22:16:00,
2013-01-06 15:22:00,31.7,21.6,30.06,North,5,1.0,2.0,66,0.00,,,0.00,93,Wunderground v.1.15,2013-01-06 22:22:00,
2013-01-06 15:28:00,31.8,21.4,30.06,North,5,1.0,2.0,65,0.00,,,0.00,83,Wunderground v.1.15,2013-01-06 22:28:00,
2013-01-06 15:34:00,31.9,21.1,30.06,North,5,1.0,1.0,64,0.00,,,0.00,69,Wunderground v.1.15,2013-01-06 22:34:00,
2013-01-06 15:40:00,31.7,21.6,30.06,North,5,1.0,3.0,66,0.00,,,0.00,74,Wunderground v.1.15,2013-01-06 22:40:00,
2013-01-06 15:46:00,31.5,22.1,30.07,North,360,3.0,3.0,68,0.00,,,0.00,120,Wunderground v.1.15,2013-01-06 22:46:00,
2013-01-06 15:52:00,31.4,21.3,30.06,North,11,2.0,4.0,66,0.00,,,0.00,72,Wunderground v.1.15,2013-01-06 22:52:00,
2013-01-06 15:58:00,31.3,21.3,30.06,North,11,1.0,4.0,66,0.00,,,0.00,88,Wunderground v.1.15,2013-01-06 22:58:00,
2013-01-06 16:04:00,31.3,21.6,30.06,North,11,2.0,3.0,67,0.00,,,0.00,58,Wunderground v.1.15,2013-01-06 23:04:00,
2013-01-06 16:10:00,31.2,21.5,30.07,North,11,1.0,1.0,67,0.00,,,0.00,58,Wunderground v.1.15,2013-01-06 23:10:00,
2013-01-06 16:16:00,30.6,20.6,30.07,North,11,1.0,3.0,66,0.00,,,0.00,39,Wunderground v.1.15,2013-01-06 23:16:00,
2013-01-06 16:22:00,29.9,20.6,30.07,North,11,2.0,2.0,68,0.00,,,0.00,49,Wunderground v.1.15,2013-01-06 23:22:00,
2013-01-06 16:28:00,29.6,20.7,30.07,North,11,1.0,2.0,69,0.00,,,0.00,30,Wunderground v.1.15,2013-01-06 23:28:00,
2013-01-06 16:34:00,29.2,20.6,30.07,North,11,1.0,2.0,70,0.00,,,0.00,33,Wunderground v.1.15,2013-01-06 23:34:00,
2013-01-06 16:40:00,28.3,20.1,30.07,North,11,0.0,0.0,71,0.00,,,0.00,28,Wunderground v.1.15,2013-01-06 23:40:00,
2013-01-06 16:46:00,28.0,20.5,30.07,North,11,1.0,3.0,73,0.00,,,0.00,23,Wunderground v.1.15,2013-01-06 23:46:00,
2013-01-06 16:52:00,28.0,20.5,30.07,North,11,1.0,1.0,73,0.00,,,0.00,14,Wunderground v.1.15,2013-01-06 23:52:00,
2013-01-06 16:58:00,27.5,20.3,30.08,North,11,1.0,3.0,74,0.00,,,0.00,7,Wunderground v.1.15,2013-01-06 23:58:00,
2013-01-06 17:04:00,26.5,19.3,30.09,North,11,1.0,1.0,74,0.00,,,0.00,0,Wunderground v.1.15,2013-01-07 00:04:00,
2013-01-06 17:10:00,25.8,19.3,30.09,North,11,1.0,3.0,76,0.00,,,0.00,0,Wunderground v.1.15,2013-01-07 00:10:00,
2013-01-06 17:16:00,26.2,20.6,30.09,North,11,3.0,4.0,79,0.00,,,0.00,0,Wunderground v.1.15,2013-01-07 00:16:00,
2013-01-06 17:22:00,26.3,20.4,30.09,North,5,2.0,4.0,78,0.00,,,0.00,0,Wunderground v.1.15,2013-01-07 00:22:00,
2013-01-06 17:28:00,26.1,20.2,30.10,North,360,2.0,4.0,78,0.00,,,0.00,0,Wunderground v.1.15,2013-01-07 00:28:00,
2013-01-06 17:34:00,25.8,19.9,30.10,North,360,2.0,3.0,78,0.00,,,0.00,0,Wunderground v.1.15,2013-01-07 00:34:00,
2013-01-06 17:40:00,24.7,18.5,30.09,North,360,0.0,0.0,77,0.00,,,0.00,0,Wunderground v.1.15,2013-01-07 00:40:00,
2013-01-06 17:46:00,23.6,17.4,30.08,North,360,0.0,0.0,77,0.00,,,0.00,0,Wunderground v.1.15,2013-01-07 00:46:00,
2013-01-06 17:52:00,23.5,19.1,30.08,North,360,0.0,0.0,83,0.00,,,0.00,0,Wunderground v.1.15,2013-01-07 00:52:00,
2013-01-06 17:58:00,23.8,19.1,30.08,North,360,0.0,0.0,82,0.00,,,0.00,0,Wunderground v.1.15,2013-01-07 00:58:00,
2013-01-06 18:04:00,23.6,19.2,30.08,North,360,0.0,0.0,83,0.00,,,0.00,0,Wunderground v.1.15,2013-01-07 01:04:00,
2013-01-06 18:10:00,23.2,18.5,30.09,North,360,0.0,0.0,82,0.00,,,0.00,0,Wunderground v.1.15,2013-01-07 01:10:00,
2013-01-06 18:16:00,22.5,17.8,30.10,North,360,0.0,0.0,82,0.00,,,0.00,0,Wunderground v.1.15,2013-01-07 01:16:00,
2013-01-06 18:22:00,22.2,18.1,30.10,North,360,0.0,3.0,84,0.00,,,0.00,0,Wunderground v.1.15,2013-01-07 01:22:00,
2013-01-06 18:28:00,21.2,16.6,30.10,North,360,1.0,3.0,82,0.00,,,0.00,0,Wunderground v.1.15,2013-01-07 01:28:00,
2013-01-06 18:34:00,20.8,17.0,30.09,NNE,30,2.0,4.0,85,0.00,,,0.00,0,Wunderground v.1.15,2013-01-07 01:34:00,
2013-01-06 18:40:00,21.8,18.5,30.09,NE,44,2.0,3.0,87,0.00,,,0.00,0,Wunderground v.1.15,2013-01-07 01:40:00,
2013-01-06 18:46:00,23.8,20.2,30.09,SSE,167,2.0,3.0,86,0.00,,,0.00,0,Wunderground v.1.15,2013-01-07 01:46:00,
2013-01-06 18:52:00,24.6,20.2,30.09,SSE,167,1.0,2.0,83,0.00,,,0.00,0,Wunderground v.1.15,2013-01-07 01:52:00,
2013-01-06 18:58:00,25.5,20.5,30.09,SSE,167,0.0,2.0,81,0.00,,,0.00,0,Wunderground v.1.15,2013-01-07 01:58:00,
2013-01-06 19:04:00,25.3,18.8,30.09,South,185,1.0,3.0,76,0.00,,,0.00,0,Wunderground v.1.15,2013-01-07 02:04:00,
2013-01-06 19:10:00,24.3,19.0,30.08,South,181,3.0,3.0,80,0.00,,,0.00,0,Wunderground v.1.15,2013-01-07 02:10:00,
2013-01-06 19:16:00,25.1,20.4,30.08,South,179,3.0,5.0,82,0.00,,,0.00,0,Wunderground v.1.15,2013-01-07 02:16:00,
2013-01-06 19:22:00,26.0,20.4,30.09,South,180,3.0,4.0,79,0.00,,,0.00,0,Wunderground v.1.15,2013-01-07 02:22:00,
2013-01-06 19:28:00,25.8,19.9,30.09,South,180,2.0,4.0,78,0.00,,,0.00,0,Wunderground v.1.15,2013-01-07 02:28:00,
2013-01-06 19:34:00,25.4,19.5,30.10,South,180,0.0,1.0,78,0.00,,,0.00,0,Wunderground v.1.15,2013-01-07 02:34:00,
2013-01-06 19:40:00,25.1,19.2,30.09,South,180,0.0,0.0,78,0.00,,,0.00,0,Wunderground v.1.15,2013-01-07 02:40:00,
2013-01-06 19:46:00,24.3,18.4,30.10,South,180,0.0,0.0,78,0.00,,,0.00,0,Wunderground v.1.15,2013-01-07 02:46:00,
2013-01-06 19:52:00,23.1,17.3,30.10,South,180,0.0,0.0,78,0.00,,,0.00,0,Wunderground v.1.15,2013-01-07 02:52:00,
2013-01-06 19:58:00,21.6,16.7,30.10,South,180,0.0,0.0,81,0.00,,,0.00,0,Wunderground v.1.15,2013-01-07 02:58:00,
2013-01-06 20:04:00,22.5,18.4,30.10,South,180,0.0,0.0,84,0.00,,,0.00,0,Wunderground v.1.15,2013-01-07 03:04:00,
2013-01-06 20:10:00,23.2,18.2,30.11,South,180,0.0,0.0,81,0.00,,,0.00,0,Wunderground v.1.15,2013-01-07 03:10:00,
2013-01-06 20:16:00,23.9,18.9,30.11,South,180,1.0,2.0,81,0.00,,,0.00,0,Wunderground v.1.15,2013-01-07 03:16:00,
2013-01-06 20:22:00,23.8,17.6,30.11,South,180,1.0,1.0,77,0.00,,,0.00,0,Wunderground v.1.15,2013-01-07 03:22:00,
2013-01-06 20:28:00,22.7,16.3,30.11,South,180,0.0,3.0,76,0.00,,,0.00,0,Wunderground v.1.15,2013-01-07 03:28:00,
2013-01-06 20:34:00,21.1,15.0,30.12,South,180,1.0,2.0,77,0.00,,,0.00,0,Wunderground v.1.15,2013-01-07 03:34:00,
2013-01-06 20:40:00,20.9,15.4,30.12,South,180,1.0,1.0,79,0.00,,,0.00,0,Wunderground v.1.15,2013-01-07 03:40:00,
2013-01-06 20:46:00,20.4,15.8,30.12,South,180,1.0,1.0,82,0.00,,,0.00,0,Wunderground v.1.15,2013-01-07 03:46:00,
2013-01-06 20:52:00,21.8,17.4,30.13,WSW,237,1.0,3.0,83,0.00,,,0.00,0,Wunderground v.1.15,2013-01-07 03:52:00,
2013-01-06 20:58:00,22.7,17.7,30.12,WSW,237,1.0,3.0,81,0.00,,,0.00,0,Wunderground v.1.15,2013-01-07 03:58:00,
2013-01-06 21:04:00,23.3,17.7,30.12,WSW,237,0.0,1.0,79,0.00,,,0.00,0,Wunderground v.1.15,2013-01-07 04:04:00,
2013-01-06 21:10:00,24.8,19.5,30.12,WSW,237,0.0,0.0,80,0.00,,,0.00,0,Wunderground v.1.15,2013-01-07 04:10:00,
2013-01-06 21:16:00,25.2,19.0,30.12,SW,236,1.0,2.0,77,0.00,,,0.00,0,Wunderground v.1.15,2013-01-07 04:16:00,
2013-01-06 21:22:00,25.1,18.9,30.12,SW,236,1.0,1.0,77,0.00,,,0.00,0,Wunderground v.1.15,2013-01-07 04:22:00,
2013-01-06 21:28:00,25.1,18.9,30.12,SW,236,0.0,3.0,77,0.00,,,0.00,0,Wunderground v.1.15,2013-01-07 04:28:00,
2013-01-06 21:34:00,25.2,19.3,30.12,South,181,1.0,6.0,78,0.00,,,0.00,0,Wunderground v.1.15,2013-01-07 04:34:00,
2013-01-06 21:40:00,25.5,19.3,30.12,South,181,3.0,3.0,77,0.00,,,0.00,0,Wunderground v.1.15,2013-01-07 04:40:00,
2013-01-06 21:46:00,25.9,19.1,30.12,South,181,1.0,3.0,75,0.00,,,0.00,0,Wunderground v.1.15,2013-01-07 04:46:00,
2013-01-06 21:52:00,25.6,18.5,30.12,South,181,1.0,2.0,74,0.00,,,0.00,0,Wunderground v.1.15,2013-01-07 04:52:00,
2013-01-06 21:58:00,25.1,18.3,30.12,South,181,1.0,3.0,75,0.00,,,0.00,0,Wunderground v.1.15,2013-01-07 04:58:00,
2013-01-06 22:00:00,25.0,18.2,30.11,South,181,1.0,3.0,75,0.00,,,0.00,0,Wunderground v.1.15,2013-01-07 05:00:00,
2013-01-06 22:02:00,25.0,18.2,30.12,South,181,2.0,3.0,75,0.00,,,0.00,0,Wunderground v.1.15,2013-01-07 05:02:00,
2013-01-06 22:04:00,24.9,18.1,30.11,South,181,2.0,3.0,75,0.00,,,0.00,0,Wunderground v.1.15,2013-01-07 05:04:00,
2013-01-06 22:12:00,24.8,18.0,30.11,South,182,2.0,3.0,75,0.00,,,0.00,0,Wunderground v.1.15,2013-01-07 05:12:00,
2013-01-06 22:18:00,24.9,18.1,30.11,South,182,3.0,3.0,75,0.00,,,0.00,0,Wunderground v.1.15,2013-01-07 05:18:00,
2013-01-06 22:24:00,25.1,18.3,30.12,SSW,208,3.0,3.0,75,0.00,,,0.00,0,Wunderground v.1.15,2013-01-07 05:24:00,
2013-01-06 22:30:00,25.0,17.9,30.12,SSW,204,3.0,5.0,74,0.00,,,0.00,0,Wunderground v.1.15,2013-01-07 05:30:00,
2013-01-06 22:36:00,25.2,18.7,30.13,SSW,198,3.0,5.0,76,0.00,,,0.00,0,Wunderground v.1.15,2013-01-07 05:36:00,
2013-01-06 22:42:00,25.5,19.0,30.13,SSW,198,3.0,4.0,76,0.00,,,0.00,0,Wunderground v.1.15,2013-01-07 05:42:00,
2013-01-06 22:48:00,25.7,18.9,30.12,SSW,197,3.0,4.0,75,0.00,,,0.00,0,Wunderground v.1.15,2013-01-07 05:48:00,
2013-01-06 22:54:00,26.1,19.3,30.12,South,190,4.0,4.0,75,0.00,,,0.00,0,Wunderground v.1.15,2013-01-07 05:54:00,
2013-01-06 23:00:00,26.3,19.1,30.12,South,190,3.0,5.0,74,0.00,,,0.00,0,Wunderground v.1.15,2013-01-07 06:00:00,
2013-01-06 23:06:00,26.6,19.1,30.11,SSW,213,3.0,7.0,73,0.00,,,0.00,0,Wunderground v.1.15,2013-01-07 06:06:00,
2013-01-06 23:12:00,27.0,19.5,30.12,South,186,4.0,7.0,73,0.00,,,0.00,0,Wunderground v.1.15,2013-01-07 06:12:00,
2013-01-06 23:18:00,27.7,19.5,30.12,SW,217,5.0,11.0,71,0.00,,,0.00,0,Wunderground v.1.15,2013-01-07 06:18:00,
2013-01-06 23:24:00,28.1,19.6,30.13,SW,219,5.0,5.0,70,0.00,,,0.00,0,Wunderground v.1.15,2013-01-07 06:24:00,
2013-01-06 23:30:00,28.2,19.0,30.13,SW,219,1.0,1.0,68,0.00,,,0.00,0,Wunderground v.1.15,2013-01-07 06:30:00,
2013-01-06 23:36:00,28.1,18.9,30.13,SSW,213,1.0,6.0,68,0.00,,,0.00,0,Wunderground v.1.15,2013-01-07 06:36:00,
2013-01-06 23:42:00,28.0,18.8,30.12,SSW,213,2.0,4.0,68,0.00,,,0.00,0,Wunderground v.1.15,2013-01-07 06:42:00,
2013-01-06 23:48:00,27.9,19.0,30.12,SW,219,3.0,4.0,69,0.00,,,0.00,0,Wunderground v.1.15,2013-01-07 06:48:00,
2013-01-06 23:54:00,28.2,19.3,30.12,SW,224,6.0,6.0,69,0.00,,,0.00,0,Wunderground v.1.15,2013-01-07 06:54:00,